createdAt,value
2023-03-08T00:01:58.696Z,97388.63
2023-03-08T00:04:25.501Z,97389.56
2023-03-08T00:06:52.231Z,97383.56
2023-03-08T00:09:18.848Z,97389.97
2023-03-08T00:11:45.510Z,97387.25
2023-03-08T00:14:12.454Z,97393.63
2023-03-08T00:16:39.169Z,97396.22
2023-03-08T00:19:05.772Z,97395.25
2023-03-08T00:21:32.459Z,97398.56
2023-03-08T00:23:59.131Z,97396.38
2023-03-08T00:26:25.779Z,97402.94
2023-03-08T00:28:53.170Z,97405.38
2023-03-08T00:31:20.097Z,97399.09
2023-03-08T00:33:46.829Z,97398.81
2023-03-08T00:36:15.219Z,97402.13
2023-03-08T00:38:42.030Z,97402.94
2023-03-08T00:41:08.774Z,97405.66
2023-03-08T00:43:35.799Z,97405.66
2023-03-08T00:46:02.465Z,97417.38
2023-03-08T00:48:29.109Z,97410.03
2023-03-08T00:50:55.714Z,97410.25
2023-03-08T00:53:22.336Z,97408.63
2023-03-08T00:55:50.667Z,97413.38
2023-03-08T00:58:17.672Z,97418.03
2023-03-08T01:00:44.868Z,97416.97
2023-03-08T01:03:11.694Z,97406.75
2023-03-08T01:05:42.315Z,97413.81
2023-03-08T01:08:09.608Z,97401.38
2023-03-08T01:10:36.736Z,97395.47
2023-03-08T01:13:04.448Z,97402.75
2023-03-08T01:15:31.092Z,97400.00
2023-03-08T01:17:57.749Z,97393.91
2023-03-08T01:20:24.320Z,97396.88
2023-03-08T01:22:50.942Z,97396.50
2023-03-08T01:25:17.581Z,97392.38
2023-03-08T01:27:44.218Z,97401.81
2023-03-08T01:30:11.642Z,97394.31
2023-03-08T01:32:38.402Z,97400.72
2023-03-08T01:35:05.672Z,97397.72
2023-03-08T01:37:32.867Z,97391.72
2023-03-08T01:39:59.556Z,97394.56
2023-03-08T01:42:27.011Z,97386.53
2023-03-08T01:45:01.133Z,97385.72
2023-03-08T01:47:28.761Z,97379.72
2023-03-08T01:49:58.340Z,97391.16
2023-03-08T01:52:37.958Z,97389.56
2023-03-08T01:55:06.910Z,97391.88
2023-03-08T01:57:36.298Z,97384.13
2023-03-08T02:00:09.925Z,97386.72
2023-03-08T02:02:41.823Z,97382.59
2023-03-08T02:05:08.976Z,97395.97
2023-03-08T02:07:35.618Z,97393.91
2023-03-08T02:10:02.473Z,97390.22
2023-03-08T02:12:29.279Z,97377.28
2023-03-08T02:14:56.508Z,97372.09
2023-03-08T02:17:23.317Z,97375.25
2023-03-08T02:19:56.761Z,97377.75
2023-03-08T02:22:23.412Z,97378.72
2023-03-08T02:24:50.055Z,97386.47
2023-03-08T02:27:20.666Z,97379.34
2023-03-08T02:29:47.704Z,97383.22
2023-03-08T02:32:14.442Z,97366.00
2023-03-08T02:34:41.047Z,97374.47
2023-03-08T02:37:08.058Z,97375.69
2023-03-08T02:39:34.776Z,97373.09
2023-03-08T02:42:01.344Z,97361.63
2023-03-08T02:44:27.960Z,97367.69
2023-03-08T02:46:54.596Z,97365.75
2023-03-08T02:49:21.252Z,97360.19
2023-03-08T02:51:47.909Z,97361.13
2023-03-08T02:54:16.845Z,97364.69
2023-03-08T02:56:43.617Z,97369.88
2023-03-08T02:59:10.471Z,97377.94
2023-03-08T03:01:37.423Z,97367.16
2023-03-08T03:04:04.163Z,97365.47
2023-03-08T03:06:30.776Z,97359.63
2023-03-08T03:08:57.626Z,97365.78
2023-03-08T03:11:24.487Z,97366.19
2023-03-08T03:13:58.991Z,97359.22
2023-03-08T03:16:26.408Z,97349.94
2023-03-08T03:18:56.914Z,97353.25
2023-03-08T03:21:23.917Z,97354.88
2023-03-08T03:23:50.697Z,97348.06
2023-03-08T03:26:19.547Z,97358.69
2023-03-08T03:28:46.234Z,97354.88
2023-03-08T03:31:15.890Z,97355.72
2023-03-08T03:33:42.733Z,97350.22
2023-03-08T03:36:12.537Z,97349.16
2023-03-08T03:38:39.634Z,97344.28
2023-03-08T03:41:11.669Z,97331.44
2023-03-08T03:43:39.346Z,97335.38
2023-03-08T03:46:08.332Z,97341.81
2023-03-08T03:48:36.338Z,97346.16
2023-03-08T03:51:09.596Z,97352.03
2023-03-08T03:53:36.658Z,97349.16
2023-03-08T03:56:15.558Z,97357.34
2023-03-08T03:58:43.006Z,97355.84
2023-03-08T04:01:27.371Z,97361.00
2023-03-08T04:03:55.063Z,97361.34
2023-03-08T04:06:26.420Z,97359.47
2023-03-08T04:08:54.618Z,97353.16
2023-03-08T04:11:24.480Z,97357.69
2023-03-08T04:13:51.766Z,97354.25
2023-03-08T04:16:23.799Z,97367.81
2023-03-08T04:19:02.278Z,97362.41
2023-03-08T04:21:29.500Z,97352.81
2023-03-08T04:23:57.625Z,97354.72
2023-03-08T04:26:25.774Z,97362.72
2023-03-08T04:28:52.829Z,97366.72
2023-03-08T04:31:22.139Z,97359.69
2023-03-08T04:33:49.065Z,97348.69
2023-03-08T04:36:17.449Z,97351.00
2023-03-08T04:38:45.847Z,97347.72
2023-03-08T04:41:13.005Z,97345.56
2023-03-08T04:43:50.308Z,97344.63
2023-03-08T04:46:19.003Z,97339.97
2023-03-08T04:48:46.049Z,97332.22
2023-03-08T04:51:14.104Z,97327.91
2023-03-08T04:53:41.825Z,97322.03
2023-03-08T04:56:13.062Z,97319.78
2023-03-08T04:58:40.441Z,97326.88
2023-03-08T05:01:16.684Z,97330.66
2023-03-08T05:03:44.002Z,97340.22
2023-03-08T05:06:11.935Z,97331.75
2023-03-08T05:08:38.661Z,97333.56
2023-03-08T05:11:06.018Z,97334.28
2023-03-08T05:13:34.974Z,97327.16
2023-03-08T05:16:03.076Z,97326.03
2023-03-08T05:18:29.869Z,97312.97
2023-03-08T05:20:58.107Z,97310.50
2023-03-08T05:23:27.607Z,97310.56
2023-03-08T05:25:56.505Z,97306.44
2023-03-08T05:28:25.313Z,97306.22
2023-03-08T05:31:01.654Z,97309.97
2023-03-08T05:33:28.358Z,97304.25
2023-03-08T05:35:55.348Z,97304.25
2023-03-08T05:38:22.677Z,97302.94
2023-03-08T05:40:49.824Z,97304.94
2023-03-08T05:43:17.377Z,97296.94
2023-03-08T05:45:44.796Z,97298.69
2023-03-08T05:48:11.460Z,97294.34
2023-03-08T05:50:38.948Z,97295.97
2023-03-08T05:53:05.813Z,97299.78
2023-03-08T05:55:32.367Z,97291.44
2023-03-08T05:57:59.134Z,97293.50
2023-03-08T06:00:26.174Z,97291.47
2023-03-08T06:02:53.055Z,97297.88
2023-03-08T06:05:19.653Z,97291.84
2023-03-08T06:07:46.331Z,97297.19
2023-03-08T06:10:12.905Z,97290.38
2023-03-08T06:12:39.524Z,97296.50
2023-03-08T06:15:07.109Z,97295.97
2023-03-08T06:17:33.751Z,97287.25
2023-03-08T06:20:00.443Z,97281.66
2023-03-08T06:22:27.043Z,97267.22
2023-03-08T06:24:55.100Z,97270.53
2023-03-08T06:27:21.726Z,97272.69
2023-03-08T06:29:49.138Z,97279.38
2023-03-08T06:32:15.841Z,97269.56
2023-03-08T06:34:43.634Z,97270.00
2023-03-08T06:37:10.238Z,97268.19
2023-03-08T06:39:36.965Z,97271.06
2023-03-08T06:42:03.777Z,97267.94
2023-03-08T06:44:30.567Z,97261.91
2023-03-08T06:46:57.384Z,97264.69
2023-03-08T06:49:24.060Z,97254.78
2023-03-08T06:51:50.689Z,97251.19
2023-03-08T06:54:19.477Z,97253.69
2023-03-08T06:56:47.572Z,97243.28
2023-03-08T06:59:14.712Z,97239.06
2023-03-08T07:01:42.699Z,97243.94
2023-03-08T07:04:09.702Z,97243.56
2023-03-08T07:06:36.359Z,97243.81
2023-03-08T07:09:03.248Z,97241.41
2023-03-08T07:11:31.590Z,97244.41
2023-03-08T07:13:59.476Z,97246.16
2023-03-08T07:16:26.530Z,97233.47
2023-03-08T07:18:53.515Z,97235.94
2023-03-08T07:21:20.230Z,97231.47
2023-03-08T07:23:46.829Z,97229.56
2023-03-08T07:26:37.525Z,97221.69
2023-03-08T07:29:04.337Z,97228.63
2023-03-08T07:31:32.663Z,97226.44
2023-03-08T07:33:59.464Z,97223.44
2023-03-08T07:36:26.103Z,97213.09
2023-03-08T07:38:52.723Z,97205.31
2023-03-08T07:41:19.368Z,97206.03
2023-03-08T07:43:46.268Z,97208.22
2023-03-08T07:46:14.113Z,97198.94
2023-03-08T07:48:42.462Z,97194.19
2023-03-08T07:51:10.949Z,97193.53
2023-03-08T07:53:38.471Z,97190.22
2023-03-08T07:56:05.960Z,97189.13
2023-03-08T07:58:33.881Z,97187.94
2023-03-08T08:01:01.144Z,97175.91
2023-03-08T08:03:30.344Z,97176.75
2023-03-08T08:05:57.890Z,97181.50
2023-03-08T08:08:36.766Z,97175.38
2023-03-08T08:11:11.207Z,97187.38
2023-03-08T08:13:38.363Z,97172.28
2023-03-08T08:16:07.418Z,97165.06
2023-03-08T08:18:35.900Z,97156.75
2023-03-08T08:21:05.960Z,97159.47
2023-03-08T08:23:33.363Z,97154.66
2023-03-08T08:26:00.114Z,97152.78
2023-03-08T08:28:27.362Z,97140.94
2023-03-08T08:31:02.143Z,97136.31
2023-03-08T08:33:29.370Z,97127.97
2023-03-08T08:35:56.292Z,97123.06
2023-03-08T08:38:23.423Z,97118.56
2023-03-08T08:40:50.080Z,97125.66
2023-03-08T08:43:17.387Z,97131.25
2023-03-08T08:45:49.248Z,97124.81
2023-03-08T08:48:15.996Z,97118.16
2023-03-08T08:50:42.707Z,97116.28
2023-03-08T08:53:10.210Z,97105.25
2023-03-08T08:55:38.488Z,97102.50
2023-03-08T08:58:06.518Z,97098.66
2023-03-08T09:00:34.912Z,97099.25
2023-03-08T09:03:02.427Z,97095.97
2023-03-08T09:05:29.348Z,97085.22
2023-03-08T09:07:58.605Z,97096.53
2023-03-08T09:10:30.260Z,97091.66
2023-03-08T09:12:59.283Z,97081.94
2023-03-08T09:15:26.420Z,97077.72
2023-03-08T09:17:53.120Z,97078.28
2023-03-08T09:20:22.892Z,97069.03
2023-03-08T09:22:50.106Z,97066.97
2023-03-08T09:25:17.601Z,97058.13
2023-03-08T09:27:44.162Z,97059.09
2023-03-08T09:30:14.003Z,97052.25
2023-03-08T09:32:40.971Z,97053.22
2023-03-08T09:35:07.967Z,97041.22
2023-03-08T09:37:35.054Z,97036.88
2023-03-08T09:40:02.575Z,97033.19
2023-03-08T09:42:34.125Z,97026.75
2023-03-08T09:45:24.116Z,97007.53
2023-03-08T09:48:18.110Z,97009.34
2023-03-08T09:50:47.896Z,96983.72
2023-03-08T09:53:37.191Z,96983.16
2023-03-08T09:56:25.762Z,96982.34
2023-03-08T09:58:58.922Z,96972.78
2023-03-08T10:01:36.904Z,96976.66
2023-03-08T10:04:27.472Z,96974.88
2023-03-08T10:07:25.263Z,96967.47
2023-03-08T10:10:28.069Z,96961.81
2023-03-08T10:13:36.827Z,96958.78
2023-03-08T10:16:44.572Z,96948.44
2023-03-08T10:19:28.636Z,96937.56
2023-03-08T10:21:57.849Z,96930.44
2023-03-08T10:24:29.718Z,96928.66
2023-03-08T10:27:19.967Z,96919.38
2023-03-08T10:29:55.356Z,96926.50
2023-03-08T10:32:22.496Z,96925.66
2023-03-08T10:34:49.483Z,96915.25
2023-03-08T10:37:16.897Z,96914.78
2023-03-08T10:39:53.502Z,96920.53
2023-03-08T10:42:23.159Z,96920.78
2023-03-08T10:44:59.656Z,96913.81
2023-03-08T10:47:33.981Z,96918.00
2023-03-08T10:50:05.308Z,96919.50
2023-03-08T10:52:32.051Z,96918.72
2023-03-08T10:55:19.125Z,96917.31
2023-03-08T10:58:04.053Z,96902.31
2023-03-08T11:00:38.682Z,96899.13
2023-03-08T11:03:15.181Z,96891.63
2023-03-08T11:05:55.568Z,96897.97
2023-03-08T11:08:33.737Z,96899.06
2023-03-08T11:11:12.319Z,96899.38
2023-03-08T11:13:45.226Z,96903.97
2023-03-08T11:17:05.691Z,96895.81
2023-03-08T11:20:00.786Z,96897.63
2023-03-08T11:23:21.626Z,96895.84
2023-03-08T11:26:01.819Z,96893.06
2023-03-08T11:29:21.101Z,96891.78
2023-03-08T11:32:18.418Z,96889.94
2023-03-08T11:35:10.086Z,96894.53
2023-03-08T11:37:44.780Z,96881.81
2023-03-08T11:44:14.054Z,96871.50
2023-03-08T11:46:53.656Z,96862.09
2023-03-08T11:49:46.785Z,96862.19
2023-03-08T11:52:33.088Z,96859.66
2023-03-08T11:55:20.786Z,96846.78
2023-03-08T11:57:53.931Z,96847.66
2023-03-08T12:00:30.362Z,96839.00
2023-03-08T12:03:00.373Z,96837.88
2023-03-08T12:05:29.769Z,96829.59
2023-03-08T12:08:13.673Z,96831.97
2023-03-08T12:11:02.942Z,96829.53
2023-03-08T12:13:38.937Z,96822.03
2023-03-08T12:16:22.633Z,96824.13
2023-03-08T12:18:57.865Z,96829.38
2023-03-08T12:21:34.156Z,96824.25
2023-03-08T12:24:20.333Z,96819.16
2023-03-08T12:26:52.562Z,96820.88
2023-03-08T12:29:43.674Z,96808.94
2023-03-08T12:32:11.457Z,96807.09
2023-03-08T12:34:47.708Z,96802.13
2023-03-08T12:37:25.868Z,96791.47
2023-03-08T12:40:08.517Z,96780.00
2023-03-08T12:42:38.318Z,96776.66
2023-03-08T12:45:27.965Z,96776.81
2023-03-08T12:48:09.990Z,96764.97
2023-03-08T12:50:41.937Z,96767.31
2023-03-08T12:53:26.589Z,96785.31
2023-03-08T12:56:06.286Z,96790.94
2023-03-08T12:58:34.133Z,96781.81
2023-03-08T13:01:04.377Z,96784.50
2023-03-08T13:03:40.223Z,96780.56
2023-03-08T13:06:37.572Z,96763.16
2023-03-08T13:09:23.032Z,96773.63
2023-03-08T13:12:00.454Z,96773.63
2023-03-08T13:14:42.553Z,96764.06
2023-03-08T13:17:52.246Z,96761.78
2023-03-08T13:20:24.836Z,96753.97
2023-03-08T13:23:30.413Z,96750.44
2023-03-08T13:26:14.825Z,96758.00
2023-03-08T13:28:47.727Z,96755.00
2023-03-08T13:31:20.913Z,96756.50
2023-03-08T13:33:50.634Z,96752.44
2023-03-08T13:36:31.353Z,96762.06
2023-03-08T13:39:18.200Z,96754.50
2023-03-08T13:41:46.192Z,96752.06
2023-03-08T13:44:30.768Z,96753.69
2023-03-08T13:47:00.117Z,96758.00
2023-03-08T13:49:29.618Z,96758.34
2023-03-08T13:51:59.482Z,96751.63
2023-03-08T13:54:29.560Z,96749.78
2023-03-08T13:57:01.419Z,96745.69
2023-03-08T13:59:28.155Z,96744.66
2023-03-08T14:01:56.021Z,96759.59
2023-03-08T14:04:28.462Z,96744.66
2023-03-08T14:06:59.816Z,96740.59
2023-03-08T14:09:27.598Z,96730.44
2023-03-08T14:12:05.002Z,96737.84
2023-03-08T14:14:34.459Z,96729.41
2023-03-08T14:17:01.473Z,96728.09
2023-03-08T14:19:30.476Z,96725.06
2023-03-08T14:21:59.947Z,96718.25
2023-03-08T14:24:28.929Z,96725.41
2023-03-08T14:27:07.016Z,96729.59
2023-03-08T14:29:34.976Z,96736.09
2023-03-08T14:32:31.226Z,96730.00
2023-03-08T14:35:16.694Z,96725.94
2023-03-08T14:37:44.949Z,96739.19
2023-03-08T14:40:21.682Z,96740.19
2023-03-08T14:42:51.014Z,96733.56
2023-03-08T14:45:33.767Z,96728.38
2023-03-08T14:48:03.156Z,96720.41
2023-03-08T14:50:34.435Z,96711.19
2023-03-08T14:53:03.249Z,96704.06
2023-03-08T14:55:35.669Z,96696.88
2023-03-08T14:58:04.628Z,96707.25
2023-03-08T15:00:31.962Z,96706.25
2023-03-08T15:02:59.480Z,96717.03
2023-03-08T15:05:29.541Z,96711.56
2023-03-08T15:07:58.194Z,96709.72
2023-03-08T15:10:32.606Z,96698.84
2023-03-08T15:12:59.735Z,96692.69
2023-03-08T15:15:27.104Z,96691.72
2023-03-08T15:17:53.799Z,96693.56
2023-03-08T15:20:21.004Z,96687.16
2023-03-08T15:22:50.382Z,96684.19
2023-03-08T15:25:23.498Z,96676.53
2023-03-08T15:27:50.737Z,96682.66
2023-03-08T15:30:23.234Z,96679.13
2023-03-08T15:32:50.142Z,96676.50
2023-03-08T15:35:17.116Z,96672.28
2023-03-08T15:37:44.901Z,96680.81
2023-03-08T15:40:14.583Z,96673.81
2023-03-08T15:42:44.428Z,96674.72
2023-03-08T15:45:12.381Z,96663.84
2023-03-08T15:47:39.092Z,96647.13
2023-03-08T15:50:11.799Z,96651.69
2023-03-08T15:52:38.517Z,96642.59
2023-03-08T15:55:06.155Z,96643.72
2023-03-08T15:57:34.962Z,96629.53
2023-03-08T16:00:01.610Z,96638.28
2023-03-08T16:02:28.430Z,96635.91
2023-03-08T16:04:56.031Z,96643.00
2023-03-08T16:07:22.805Z,96643.00
2023-03-08T16:09:49.467Z,96643.81
2023-03-08T16:12:16.217Z,96636.19
2023-03-08T16:14:48.204Z,96629.88
2023-03-08T16:17:16.735Z,96639.03
2023-03-08T16:19:44.481Z,96641.59
2023-03-08T16:22:11.375Z,96641.66
2023-03-08T16:24:38.217Z,96641.78
2023-03-08T16:27:05.042Z,96639.28
2023-03-08T16:29:33.617Z,96644.06
2023-03-08T16:32:00.464Z,96642.50
2023-03-08T16:34:28.141Z,96648.13
2023-03-08T16:36:55.481Z,96651.06
2023-03-08T16:39:22.448Z,96642.94
2023-03-08T16:41:49.589Z,96643.19
2023-03-08T16:44:34.657Z,96642.81
2023-03-08T16:47:01.259Z,96642.81
2023-03-08T16:49:28.783Z,96641.69
2023-03-08T16:51:56.154Z,96639.06
2023-03-08T16:54:23.287Z,96638.63
2023-03-08T16:56:50.716Z,96642.56
2023-03-08T16:59:18.015Z,96637.28
2023-03-08T17:01:45.016Z,96641.69
2023-03-08T17:04:12.050Z,96634.44
2023-03-08T17:06:39.783Z,96632.44
2023-03-08T17:09:06.851Z,96642.50
2023-03-08T17:11:34.880Z,96636.25
2023-03-08T17:14:12.325Z,96631.00
2023-03-08T17:16:40.223Z,96637.09
2023-03-08T17:19:08.373Z,96640.22
2023-03-08T17:21:39.061Z,96637.41
2023-03-08T17:24:08.069Z,96629.19
2023-03-08T17:26:36.562Z,96638.91
2023-03-08T17:29:03.373Z,96635.38
2023-03-08T17:31:30.139Z,96636.06
2023-03-08T17:33:56.854Z,96641.31
2023-03-08T17:36:25.923Z,96644.94
2023-03-08T17:38:53.873Z,96639.72
2023-03-08T17:41:21.161Z,96642.91
2023-03-08T17:43:48.458Z,96646.53
2023-03-08T17:46:18.746Z,96644.38
2023-03-08T17:48:45.430Z,96641.16
2023-03-08T17:51:15.378Z,96642.72
2023-03-08T17:53:42.896Z,96636.59
2023-03-08T17:56:15.633Z,96632.63
2023-03-08T17:58:42.835Z,96636.56
2023-03-08T18:01:18.778Z,96627.25
2023-03-08T18:03:45.905Z,96623.38
2023-03-08T18:06:41.757Z,96625.53
2023-03-08T18:09:11.361Z,96621.78
2023-03-08T18:11:38.140Z,96614.25
2023-03-08T18:14:09.562Z,96627.28
2023-03-08T18:16:36.697Z,96621.56
2023-03-08T18:19:04.230Z,96614.72
2023-03-08T18:21:33.343Z,96621.94
2023-03-08T18:23:59.998Z,96629.75
2023-03-08T18:26:26.760Z,96634.38
2023-03-08T18:28:53.568Z,96633.59
2023-03-08T18:31:23.554Z,96630.63
2023-03-08T18:33:50.883Z,96621.81
2023-03-08T18:36:21.025Z,96621.38
2023-03-08T18:38:47.737Z,96633.69
2023-03-08T18:41:28.081Z,96624.94
2023-03-08T18:43:55.735Z,96629.88
2023-03-08T18:46:29.007Z,96624.94
2023-03-08T18:49:07.265Z,96626.41
2023-03-08T18:51:35.190Z,96626.41
2023-03-08T18:54:01.905Z,96629.47
2023-03-08T18:56:29.163Z,96635.78
2023-03-08T18:58:58.485Z,96632.47
2023-03-08T19:01:25.520Z,96636.66
2023-03-08T19:03:52.561Z,96632.03
2023-03-08T19:06:19.632Z,96636.84
2023-03-08T19:08:46.360Z,96623.53
2023-03-08T19:11:15.460Z,96623.69
2023-03-08T19:13:42.877Z,96636.84
2023-03-08T19:16:33.829Z,96638.75
2023-03-08T19:19:09.440Z,96638.75
2023-03-08T19:21:39.899Z,96640.25
2023-03-08T19:24:06.817Z,96633.97
2023-03-08T19:26:39.032Z,96632.34
2023-03-08T19:29:32.362Z,96639.78
2023-03-08T19:32:04.714Z,96644.31
2023-03-08T19:34:34.201Z,96636.41
2023-03-08T19:37:01.186Z,96645.25
2023-03-08T19:39:33.826Z,96639.66
2023-03-08T19:42:03.234Z,96642.16
2023-03-08T19:44:30.495Z,96648.09
2023-03-08T19:46:57.419Z,96650.00
2023-03-08T19:49:27.648Z,96647.78
2023-03-08T19:51:58.193Z,96651.72
2023-03-08T19:54:26.259Z,96652.31
2023-03-08T19:56:53.453Z,96650.09
2023-03-08T19:59:20.363Z,96647.34
2023-03-08T20:01:50.257Z,96645.25
2023-03-08T20:04:17.145Z,96643.47
2023-03-08T20:06:46.586Z,96637.16
2023-03-08T20:09:18.440Z,96636.81
2023-03-08T20:11:45.220Z,96640.69
2023-03-08T20:14:12.036Z,96638.84
2023-03-08T20:16:38.945Z,96634.41
2023-03-08T20:19:06.098Z,96640.09
2023-03-08T20:21:32.939Z,96643.31
2023-03-08T20:24:00.219Z,96641.28
2023-03-08T20:26:32.310Z,96654.00
2023-03-08T20:28:59.408Z,96661.53
2023-03-08T20:31:27.540Z,96647.34
2023-03-08T20:33:54.313Z,96647.63
2023-03-08T20:36:21.210Z,96642.53
2023-03-08T20:38:48.098Z,96649.09
2023-03-08T20:41:17.598Z,96639.94
2023-03-08T20:43:45.602Z,96636.69
2023-03-08T20:46:13.877Z,96641.06
2023-03-08T20:48:41.878Z,96636.03
2023-03-08T20:51:10.907Z,96637.78
2023-03-08T20:53:37.679Z,96639.56
2023-03-08T20:56:09.381Z,96632.47
2023-03-08T20:58:36.557Z,96636.03
2023-03-08T21:01:22.141Z,96617.41
2023-03-08T21:03:49.091Z,96614.50
2023-03-08T21:06:24.417Z,96607.41
2023-03-08T21:08:51.240Z,96604.97
2023-03-08T21:11:18.211Z,96605.13
2023-03-08T21:13:46.277Z,96599.50
2023-03-08T21:16:15.919Z,96594.53
2023-03-08T21:18:46.093Z,96597.94
2023-03-08T21:21:43.536Z,96607.03
2023-03-08T21:24:15.541Z,96611.06
2023-03-08T21:26:42.880Z,96603.13
2023-03-08T21:29:13.170Z,96613.53
2023-03-08T21:31:42.639Z,96605.53
2023-03-08T21:34:11.323Z,96594.44
2023-03-08T21:36:38.347Z,96599.38
2023-03-08T21:39:06.065Z,96603.69
2023-03-08T21:41:34.618Z,96603.66
2023-03-08T21:44:03.095Z,96606.88
2023-03-08T21:46:30.090Z,96611.44
2023-03-08T21:48:57.559Z,96610.47
2023-03-08T21:51:24.676Z,96603.50
2023-03-08T21:53:51.508Z,96597.44
2023-03-08T21:56:18.538Z,96588.78
2023-03-08T21:58:45.484Z,96585.16
2023-03-08T22:01:23.686Z,96588.19
2023-03-08T22:03:50.753Z,96586.63
2023-03-08T22:06:17.551Z,96589.88
2023-03-08T22:08:44.267Z,96585.16
2023-03-08T22:11:11.005Z,96584.41
2023-03-08T22:13:38.524Z,96587.97
2023-03-08T22:16:05.871Z,96581.00
2023-03-08T22:18:32.628Z,96575.44
2023-03-08T22:20:59.927Z,96566.38
2023-03-08T22:23:27.153Z,96561.63
2023-03-08T22:25:54.288Z,96555.00
2023-03-08T22:28:21.739Z,96562.16
2023-03-08T22:30:48.461Z,96556.09
2023-03-08T22:33:15.560Z,96558.63
2023-03-08T22:35:46.563Z,96561.34
2023-03-08T22:38:14.070Z,96555.81
2023-03-08T22:40:44.317Z,96554.25
2023-03-08T22:43:11.414Z,96552.75
2023-03-08T22:45:38.229Z,96537.47
2023-03-08T22:48:07.070Z,96525.47
2023-03-08T22:50:33.857Z,96523.78
2023-03-08T22:53:00.574Z,96524.53
2023-03-08T22:55:27.913Z,96498.56
2023-03-08T22:57:54.674Z,96504.06
2023-03-08T23:00:21.728Z,96491.75
2023-03-08T23:02:49.083Z,96497.56
2023-03-08T23:05:20.257Z,96498.16
2023-03-08T23:07:47.187Z,96498.59
2023-03-08T23:10:15.171Z,96488.31
2023-03-08T23:12:41.958Z,96481.00
2023-03-08T23:15:09.423Z,96480.41
2023-03-08T23:17:36.415Z,96477.84
2023-03-08T23:20:04.231Z,96481.78
2023-03-08T23:22:30.898Z,96480.63
2023-03-08T23:24:57.555Z,96474.63
2023-03-08T23:27:24.356Z,96465.13
2023-03-08T23:29:54.082Z,96467.22
2023-03-08T23:32:21.064Z,96466.13
2023-03-08T23:34:48.191Z,96457.34
2023-03-08T23:37:14.926Z,96452.50
2023-03-08T23:39:41.818Z,96457.56
2023-03-08T23:42:08.500Z,96452.91
2023-03-08T23:44:35.203Z,96447.63
2023-03-08T23:47:01.983Z,96448.53
2023-03-08T23:49:28.690Z,96445.28
2023-03-08T23:51:55.387Z,96437.16
2023-03-08T23:54:22.131Z,96439.59
2023-03-08T23:56:48.959Z,96447.66
2023-03-08T23:59:22.507Z,96451.28
